Time;durP1;ratioP1;P1;durP2;ratioP2;P2;SDS_P1;SDS_P2;PMS_P1;PMS_P2;Temp;Humidity;BMP_temperature;BMP_pressure;BME280_temperature;BME280_humidity;BME280_pressure;Samples;Min_cycle;Max_cycle;Signal;HPM_P1;HPM_P2
2023/01/08 00:01:20;;;;;;;16.75;4.70;;;;;;;;;;5053486;28;20059;-33
2023/01/08 00:03:47;;;;;;;14.27;4.47;;;;;;;;;;5053292;28;20025;-31
2023/01/08 00:06:16;;;;;;;19.25;4.93;;;;;;;;;;5053498;28;20360;-31
2023/01/08 00:08:43;;;;;;;19.75;4.57;;;;;;;;;;5053156;28;20024;-33
2023/01/08 00:11:10;;;;;;;20.45;5.38;;;;;;;;;;5053300;28;20025;-31
2023/01/08 00:13:37;;;;;;;22.33;5.65;;;;;;;;;;5053233;28;20151;-32
2023/01/08 00:16:05;;;;;;;22.35;4.82;;;;;;;;;;5053111;28;20029;-32
2023/01/08 00:18:33;;;;;;;24.02;5.40;;;;;;;;;;5053062;28;20471;-31
2023/01/08 00:21:00;;;;;;;22.80;5.22;;;;;;;;;;5053078;28;20021;-31
2023/01/08 00:23:27;;;;;;;19.23;4.57;;;;;;;;;;5052840;28;20025;-31
2023/01/08 00:25:54;;;;;;;23.40;5.60;;;;;;;;;;5053023;28;20526;-31
2023/01/08 00:28:21;;;;;;;21.27;5.40;;;;;;;;;;5052815;28;20023;-31
2023/01/08 00:30:48;;;;;;;20.73;5.68;;;;;;;;;;5052775;28;20137;-31
2023/01/08 00:33:15;;;;;;;23.27;5.82;;;;;;;;;;5052897;28;20046;-32
2023/01/08 00:35:42;;;;;;;21.52;5.30;;;;;;;;;;5052688;28;20041;-31
2023/01/08 00:38:09;;;;;;;18.90;5.03;;;;;;;;;;5052619;28;20027;-31
2023/01/08 00:40:37;;;;;;;17.65;5.28;;;;;;;;;;5052645;28;20021;-33
2023/01/08 00:43:04;;;;;;;18.30;5.25;;;;;;;;;;5051940;28;20090;-31
2023/01/08 00:45:31;;;;;;;18.20;5.60;;;;;;;;;;5052666;28;20028;-32
2023/01/08 00:47:58;;;;;;;19.08;5.03;;;;;;;;;;5052428;28;20463;-31
2023/01/08 00:50:25;;;;;;;14.27;5.00;;;;;;;;;;5052567;28;20092;-31
2023/01/08 00:52:52;;;;;;;21.25;5.97;;;;;;;;;;5052372;28;20143;-31
2023/01/08 00:55:19;;;;;;;24.48;5.32;;;;;;;;;;5052626;28;20035;-34
2023/01/08 00:57:46;;;;;;;20.92;5.18;;;;;;;;;;5052523;28;20071;-32
2023/01/08 01:00:15;;;;;;;17.20;5.03;;;;;;;;;;5052553;28;20027;-33
2023/01/08 01:02:42;;;;;;;22.48;5.35;;;;;;;;;;5034601;28;20021;-32
2023/01/08 01:05:12;;;;;;;23.90;5.40;;;;;;;;;;5052441;28;20036;-33
2023/01/08 01:07:39;;;;;;;25.02;5.97;;;;;;;;;;5052255;28;20032;-31
2023/01/08 01:10:06;;;;;;;21.15;5.53;;;;;;;;;;5052451;28;20056;-32
2023/01/08 01:12:33;;;;;;;22.98;5.25;;;;;;;;;;5052337;28;20021;-31
2023/01/08 01:15:00;;;;;;;22.92;5.95;;;;;;;;;;5052378;28;20032;-31
2023/01/08 01:17:27;;;;;;;27.25;5.43;;;;;;;;;;5073652;28;20434;-34
2023/01/08 01:19:54;;;;;;;24.70;5.65;;;;;;;;;;5092606;28;20081;-31
2023/01/08 01:22:21;;;;;;;22.75;5.30;;;;;;;;;;5092528;28;20070;-32
2023/01/08 01:24:47;;;;;;;17.90;4.97;;;;;;;;;;5092415;28;20103;-31
2023/01/08 01:27:14;;;;;;;20.15;5.80;;;;;;;;;;5092430;28;20024;-31
2023/01/08 01:29:41;;;;;;;20.55;5.25;;;;;;;;;;5092398;28;20028;-31
2023/01/08 01:32:08;;;;;;;23.98;5.75;;;;;;;;;;5092390;28;20024;-32
2023/01/08 01:34:35;;;;;;;26.00;5.43;;;;;;;;;;5074203;28;20086;-31
2023/01/08 01:37:03;;;;;;;21.00;5.80;;;;;;;;;;5092114;28;20048;-31
2023/01/08 01:39:31;;;;;;;18.08;5.20;;;;;;;;;;5092246;28;20090;-32
2023/01/08 01:41:58;;;;;;;22.98;5.03;;;;;;;;;;5092302;28;20030;-32
2023/01/08 01:44:44;;;;;;;18.00;5.25;;;;;;;;;;5092234;28;20115;-31
2023/01/08 01:47:28;;;;;;;21.15;5.47;;;;;;;;;;5092249;28;20020;-31
2023/01/08 01:50:03;;;;;;;19.40;4.63;;;;;;;;;;5092268;28;20024;-32
2023/01/08 01:52:33;;;;;;;14.40;4.88;;;;;;;;;;5092316;28;20032;-31
2023/01/08 01:55:01;;;;;;;18.67;5.05;;;;;;;;;;5074409;28;20031;-31
2023/01/08 01:57:28;;;;;;;13.85;4.60;;;;;;;;;;5096230;28;20025;-32
2023/01/08 01:59:56;;;;;;;12.45;4.85;;;;;;;;;;5096319;28;20028;-32
2023/01/08 02:02:23;;;;;;;17.88;4.90;;;;;;;;;;5096150;28;20363;-31
2023/01/08 02:04:50;;;;;;;16.20;5.07;;;;;;;;;;5095890;28;20032;-31
2023/01/08 02:07:27;;;;;;;18.08;4.90;;;;;;;;;;5096002;28;20420;-31
2023/01/08 02:10:00;;;;;;;14.10;4.40;;;;;;;;;;5096056;28;20104;-33
2023/01/08 02:12:39;;;;;;;15.38;4.72;;;;;;;;;;5095785;28;20077;-33
2023/01/08 02:15:23;;;;;;;13.25;4.55;;;;;;;;;;5095948;28;20129;-31
2023/01/08 02:17:54;;;;;;;12.05;4.10;;;;;;;;;;5095812;28;20081;-32
2023/01/08 02:20:42;;;;;;;16.20;4.50;;;;;;;;;;5095887;28;20028;-32
2023/01/08 02:23:09;;;;;;;18.08;4.80;;;;;;;;;;5095747;28;20027;-32
2023/01/08 02:25:54;;;;;;;15.32;4.13;;;;;;;;;;5095697;28;20023;-32
2023/01/08 02:28:21;;;;;;;18.63;4.45;;;;;;;;;;5095715;28;20058;-32
2023/01/08 02:30:49;;;;;;;16.55;4.95;;;;;;;;;;5095539;28;20051;-31
2023/01/08 02:33:16;;;;;;;13.23;4.60;;;;;;;;;;5095616;28;20095;-31
2023/01/08 02:35:48;;;;;;;12.98;4.65;;;;;;;;;;5095409;28;20056;-31
2023/01/08 02:38:17;;;;;;;17.70;4.55;;;;;;;;;;5095357;28;20028;-31
2023/01/08 02:41:05;;;;;;;12.32;4.20;;;;;;;;;;5095506;28;20032;-31
2023/01/08 02:43:46;;;;;;;14.10;4.53;;;;;;;;;;5095356;28;20028;-32
2023/01/08 02:46:17;;;;;;;16.17;4.28;;;;;;;;;;5095430;28;20016;-32
2023/01/08 02:48:56;;;;;;;15.50;4.55;;;;;;;;;;5095183;28;20024;-31
2023/01/08 02:51:23;;;;;;;16.05;4.55;;;;;;;;;;5095265;28;20020;-32
2023/01/08 02:53:51;;;;;;;12.70;4.43;;;;;;;;;;5095216;28;20438;-31
2023/01/08 02:56:21;;;;;;;11.38;4.07;;;;;;;;;;5095184;28;20074;-31
2023/01/08 02:58:49;;;;;;;13.68;4.03;;;;;;;;;;5095053;28;20491;-31
2023/01/08 03:01:17;;;;;;;12.68;4.53;;;;;;;;;;5095169;28;20016;-32
2023/01/08 03:03:46;;;;;;;13.23;4.57;;;;;;;;;;5094935;28;20032;-31
2023/01/08 03:06:15;;;;;;;14.70;4.10;;;;;;;;;;5094568;28;20057;-32
2023/01/08 03:08:43;;;;;;;13.70;4.50;;;;;;;;;;5094735;28;20027;-32
2023/01/08 03:11:12;;;;;;;15.48;4.07;;;;;;;;;;5094957;28;20020;-31
2023/01/08 03:14:00;;;;;;;9.18;3.67;;;;;;;;;;5094805;28;20063;-32
2023/01/08 03:16:27;;;;;;;16.23;4.10;;;;;;;;;;5094736;28;20516;-33
2023/01/08 03:19:07;;;;;;;11.30;4.25;;;;;;;;;;5094832;28;20020;-33
2023/01/08 03:21:35;;;;;;;13.30;4.22;;;;;;;;;;5094722;28;20031;-32
2023/01/08 03:24:03;;;;;;;22.23;4.20;;;;;;;;;;5094449;28;20063;-32
2023/01/08 03:26:32;;;;;;;13.57;3.80;;;;;;;;;;5094546;28;20027;-31
2023/01/08 03:28:59;;;;;;;15.02;3.92;;;;;;;;;;5094541;28;20073;-31
2023/01/08 03:31:28;;;;;;;9.27;3.63;;;;;;;;;;5094537;28;20028;-31
2023/01/08 03:33:55;;;;;;;15.15;4.40;;;;;;;;;;5094605;28;20064;-31
2023/01/08 03:36:24;;;;;;;15.70;4.00;;;;;;;;;;5094082;28;20409;-32
2023/01/08 03:38:54;;;;;;;11.38;4.07;;;;;;;;;;5094364;28;20020;-31
2023/01/08 03:41:22;;;;;;;13.65;3.95;;;;;;;;;;5094287;28;20051;-31
2023/01/08 03:43:49;;;;;;;19.10;4.57;;;;;;;;;;5094269;28;20032;-32
2023/01/08 03:46:29;;;;;;;11.48;3.75;;;;;;;;;;5094066;28;20072;-31
2023/01/08 03:48:56;;;;;;;18.67;4.22;;;;;;;;;;5094070;28;20047;-32
2023/01/08 03:51:23;;;;;;;9.55;3.63;;;;;;;;;;5094169;28;20028;-32
2023/01/08 03:53:52;;;;;;;15.73;3.70;;;;;;;;;;5094116;28;20039;-31
2023/01/08 03:56:19;;;;;;;14.25;3.78;;;;;;;;;;5093968;28;20526;-34
2023/01/08 03:58:46;;;;;;;12.93;3.90;;;;;;;;;;5093973;28;20020;-32
2023/01/08 04:01:13;;;;;;;14.75;4.32;;;;;;;;;;5093983;28;20020;-33
2023/01/08 04:03:40;;;;;;;8.75;3.90;;;;;;;;;;5093842;28;20370;-32
2023/01/08 04:06:07;;;;;;;12.57;3.90;;;;;;;;;;5093907;28;20020;-31
2023/01/08 04:08:33;;;;;;;12.35;3.75;;;;;;;;;;5093977;28;20051;-31
2023/01/08 04:11:00;;;;;;;9.05;3.67;;;;;;;;;;5093761;28;20034;-31
2023/01/08 04:13:27;;;;;;;13.60;3.78;;;;;;;;;;5093645;28;20390;-32
2023/01/08 04:15:54;;;;;;;11.18;3.88;;;;;;;;;;5093553;28;20413;-31
2023/01/08 04:18:21;;;;;;;9.57;3.30;;;;;;;;;;5092785;28;20035;-31
2023/01/08 04:20:48;;;;;;;12.82;3.75;;;;;;;;;;5093757;28;20482;-31
2023/01/08 04:23:15;;;;;;;11.10;3.90;;;;;;;;;;5093536;28;20039;-31
2023/01/08 04:25:42;;;;;;;9.63;3.65;;;;;;;;;;5093585;28;20099;-32
2023/01/08 04:28:09;;;;;;;11.52;3.40;;;;;;;;;;5093464;28;20473;-31
2023/01/08 04:30:37;;;;;;;13.45;3.60;;;;;;;;;;5093463;28;20503;-31
2023/01/08 04:33:04;;;;;;;12.07;3.35;;;;;;;;;;5093510;28;20464;-31
2023/01/08 04:35:31;;;;;;;13.45;3.50;;;;;;;;;;5093099;28;20131;-32
2023/01/08 04:37:57;;;;;;;10.13;3.35;;;;;;;;;;5093216;28;20062;-33
2023/01/08 04:40:24;;;;;;;11.95;3.35;;;;;;;;;;5093309;28;20023;-31
2023/01/08 04:42:51;;;;;;;14.60;3.65;;;;;;;;;;5093306;28;20027;-31
2023/01/08 04:45:18;;;;;;;10.77;3.42;;;;;;;;;;5093193;28;20032;-32
2023/01/08 04:47:45;;;;;;;12.98;3.20;;;;;;;;;;5093280;28;20389;-32
2023/01/08 04:50:12;;;;;;;12.45;3.60;;;;;;;;;;5093227;28;20024;-32
2023/01/08 04:52:39;;;;;;;11.95;3.50;;;;;;;;;;5093110;28;20024;-32
2023/01/08 04:55:06;;;;;;;13.68;3.30;;;;;;;;;;5092994;28;20020;-32
2023/01/08 04:57:33;;;;;;;13.02;3.35;;;;;;;;;;5092950;28;20482;-31
2023/01/08 05:00:00;;;;;;;15.13;3.25;;;;;;;;;;5092987;28;20024;-32
2023/01/08 05:02:27;;;;;;;11.13;2.97;;;;;;;;;;5092930;28;20107;-31
2023/01/08 05:04:54;;;;;;;11.55;3.67;;;;;;;;;;5092834;28;20533;-31
2023/01/08 05:07:21;;;;;;;10.93;3.55;;;;;;;;;;5092677;28;20093;-31
2023/01/08 05:09:48;;;;;;;12.85;3.10;;;;;;;;;;5092843;28;20453;-31
2023/01/08 05:12:15;;;;;;;15.98;3.10;;;;;;;;;;5092741;28;20032;-33
2023/01/08 05:14:42;;;;;;;10.73;3.25;;;;;;;;;;5092741;28;20085;-32
2023/01/08 05:17:09;;;;;;;14.90;3.42;;;;;;;;;;5092846;28;20028;-31
2023/01/08 05:19:35;;;;;;;15.65;3.40;;;;;;;;;;5092779;28;20133;-33
2023/01/08 05:22:02;;;;;;;16.45;3.13;;;;;;;;;;5092665;28;20028;-31
2023/01/08 05:24:29;;;;;;;9.02;2.92;;;;;;;;;;5092457;28;20039;-31
2023/01/08 05:26:56;;;;;;;11.32;2.95;;;;;;;;;;5092511;28;20078;-32
2023/01/08 05:29:23;;;;;;;15.57;3.60;;;;;;;;;;5092444;28;20020;-33
2023/01/08 05:31:50;;;;;;;9.55;2.90;;;;;;;;;;5092570;28;20027;-31
2023/01/08 05:34:17;;;;;;;15.13;3.50;;;;;;;;;;5092531;28;20070;-32
2023/01/08 05:36:44;;;;;;;10.38;2.97;;;;;;;;;;5075800;28;20430;-31
2023/01/08 05:39:11;;;;;;;13.98;3.17;;;;;;;;;;5071797;28;20016;-32
2023/01/08 05:41:38;;;;;;;17.13;3.63;;;;;;;;;;5071893;28;20024;-31
2023/01/08 05:44:05;;;;;;;14.32;3.30;;;;;;;;;;5071910;28;20025;-33
2023/01/08 05:46:32;;;;;;;13.90;3.25;;;;;;;;;;5071831;28;20497;-32
2023/01/08 05:48:59;;;;;;;17.17;3.47;;;;;;;;;;5071780;28;20017;-31
2023/01/08 05:51:26;;;;;;;11.52;3.10;;;;;;;;;;5071770;28;20029;-32
2023/01/08 05:53:53;;;;;;;7.53;3.00;;;;;;;;;;5071858;28;20553;-33
2023/01/08 05:56:20;;;;;;;10.18;2.95;;;;;;;;;;5071742;28;20043;-32
2023/01/08 05:58:47;;;;;;;11.48;2.92;;;;;;;;;;5071752;28;20021;-32
2023/01/08 06:01:17;;;;;;;9.82;2.90;;;;;;;;;;5066181;28;20127;-32
2023/01/08 06:03:44;;;;;;;13.93;3.03;;;;;;;;;;5051641;28;20095;-31
2023/01/08 06:06:11;;;;;;;13.73;3.17;;;;;;;;;;5051590;28;20028;-33
2023/01/08 06:08:38;;;;;;;14.38;4.05;;;;;;;;;;5051658;28;20044;-33
2023/01/08 06:11:06;;;;;;;13.35;3.55;;;;;;;;;;5033959;28;20501;-32
2023/01/08 06:13:34;;;;;;;10.65;3.22;;;;;;;;;;5051621;28;20025;-31
2023/01/08 06:16:01;;;;;;;17.67;3.15;;;;;;;;;;5051304;28;20029;-33
2023/01/08 06:18:29;;;;;;;12.93;3.17;;;;;;;;;;5051535;28;20044;-32
2023/01/08 06:20:56;;;;;;;11.57;3.00;;;;;;;;;;5051540;28;20103;-31
2023/01/08 06:23:23;;;;;;;14.40;3.40;;;;;;;;;;5051478;28;20535;-31
2023/01/08 06:25:56;;;;;;;15.23;3.50;;;;;;;;;;5051530;28;20100;-32
2023/01/08 06:28:23;;;;;;;10.77;3.00;;;;;;;;;;5051404;28;20117;-31
2023/01/08 06:30:50;;;;;;;12.60;3.45;;;;;;;;;;5051502;28;20032;-31
2023/01/08 06:33:18;;;;;;;8.70;3.08;;;;;;;;;;5051435;28;20052;-32
2023/01/08 06:35:45;;;;;;;13.20;3.30;;;;;;;;;;5051038;28;20056;-34
2023/01/08 06:38:12;;;;;;;8.68;3.30;;;;;;;;;;5051280;28;20033;-31
2023/01/08 06:40:39;;;;;;;11.18;3.88;;;;;;;;;;5169009;22;20137;-38
2023/01/08 06:43:06;;;;;;;12.45;3.42;;;;;;;;;;5029441;28;20039;-39
2023/01/08 06:45:33;;;;;;;18.92;3.60;;;;;;;;;;5035589;28;20037;-39
2023/01/08 06:48:06;;;;;;;11.85;3.45;;;;;;;;;;5034785;28;20037;-39
2023/01/08 06:50:34;;;;;;;13.18;3.63;;;;;;;;;;5034891;28;20051;-39
2023/01/08 06:53:01;;;;;;;10.65;3.50;;;;;;;;;;5034883;28;20029;-39
2023/01/08 06:55:28;;;;;;;14.23;4.28;;;;;;;;;;5034825;28;20022;-39
2023/01/08 06:57:55;;;;;;;11.63;2.95;;;;;;;;;;5034769;28;20026;-39
2023/01/08 07:00:24;;;;;;;18.67;4.13;;;;;;;;;;5034582;28;20083;-39
2023/01/08 07:02:52;;;;;;;13.68;3.70;;;;;;;;;;5034560;28;20060;-39
2023/01/08 07:05:19;;;;;;;9.90;4.00;;;;;;;;;;5034534;28;20161;-39
2023/01/08 07:07:46;;;;;;;11.98;3.83;;;;;;;;;;5034497;28;20017;-38
2023/01/08 07:10:13;;;;;;;8.60;3.85;;;;;;;;;;5034407;28;20033;-38
2023/01/08 07:12:40;;;;;;;10.90;3.70;;;;;;;;;;5034416;28;20052;-38
2023/01/08 07:15:07;;;;;;;11.48;3.65;;;;;;;;;;5034409;28;20021;-38
2023/01/08 07:17:34;;;;;;;10.30;3.60;;;;;;;;;;5034393;28;20078;-38
2023/01/08 07:20:01;;;;;;;9.32;3.60;;;;;;;;;;5034281;28;20053;-38
2023/01/08 07:22:28;;;;;;;8.93;3.60;;;;;;;;;;5034294;28;20100;-37
2023/01/08 07:24:55;;;;;;;14.63;4.03;;;;;;;;;;5034109;28;20037;-37
2023/01/08 07:27:22;;;;;;;8.55;3.28;;;;;;;;;;5034125;28;20364;-38
2023/01/08 07:29:49;;;;;;;9.15;3.58;;;;;;;;;;5034176;28;20057;-38
2023/01/08 07:32:16;;;;;;;13.93;3.70;;;;;;;;;;5034005;28;20105;-38
2023/01/08 07:34:43;;;;;;;12.35;3.72;;;;;;;;;;5034055;28;20079;-38
2023/01/08 07:37:10;;;;;;;12.90;4.05;;;;;;;;;;5034031;28;20445;-38
2023/01/08 07:39:37;;;;;;;8.48;3.45;;;;;;;;;;5033996;28;20025;-37
2023/01/08 07:42:04;;;;;;;12.90;4.13;;;;;;;;;;5033733;28;20053;-37
2023/01/08 07:44:30;;;;;;;13.38;4.13;;;;;;;;;;5033736;28;20092;-38
2023/01/08 07:46:57;;;;;;;11.68;4.03;;;;;;;;;;5033859;28;20024;-37
2023/01/08 07:49:24;;;;;;;11.55;4.22;;;;;;;;;;5033749;28;20471;-38
2023/01/08 07:51:51;;;;;;;9.60;4.10;;;;;;;;;;5033684;28;20081;-37
2023/01/08 07:54:18;;;;;;;9.43;3.92;;;;;;;;;;5033726;28;20029;-38
2023/01/08 07:56:45;;;;;;;13.95;3.60;;;;;;;;;;5033647;28;20060;-38
2023/01/08 07:59:12;;;;;;;8.55;4.00;;;;;;;;;;5033607;28;20471;-38
2023/01/08 08:01:39;;;;;;;12.57;3.85;;;;;;;;;;5033452;28;20025;-38
2023/01/08 08:04:06;;;;;;;10.05;3.83;;;;;;;;;;5033420;28;20033;-38
2023/01/08 08:06:33;;;;;;;10.20;4.20;;;;;;;;;;5033348;28;20045;-38
2023/01/08 08:09:00;;;;;;;10.02;4.07;;;;;;;;;;5033422;28;20021;-38
2023/01/08 08:11:27;;;;;;;10.07;4.10;;;;;;;;;;5033302;28;20045;-38
2023/01/08 08:13:54;;;;;;;8.55;3.58;;;;;;;;;;5033265;28;20075;-38
2023/01/08 08:16:21;;;;;;;9.88;3.95;;;;;;;;;;5033312;28;20040;-37
2023/01/08 08:18:48;;;;;;;9.95;3.97;;;;;;;;;;5033199;28;20065;-38
2023/01/08 08:21:14;;;;;;;11.90;4.03;;;;;;;;;;5033116;28;20386;-37
2023/01/08 08:23:41;;;;;;;9.60;3.97;;;;;;;;;;5033083;28;20045;-38
2023/01/08 08:26:08;;;;;;;8.05;3.72;;;;;;;;;;5033055;28;20148;-38
2023/01/08 08:28:35;;;;;;;9.35;4.10;;;;;;;;;;5033075;28;20022;-38
2023/01/08 08:31:02;;;;;;;9.52;3.70;;;;;;;;;;5032880;28;20021;-37
2023/01/08 08:33:29;;;;;;;11.32;4.22;;;;;;;;;;5032994;28;20096;-38
2023/01/08 08:35:56;;;;;;;16.08;4.50;;;;;;;;;;5032963;28;20028;-38
2023/01/08 08:38:25;;;;;;;13.32;4.43;;;;;;;;;;5032845;28;20029;-38
2023/01/08 08:40:52;;;;;;;11.00;4.07;;;;;;;;;;5032382;28;20064;-38
2023/01/08 08:43:19;;;;;;;9.35;4.18;;;;;;;;;;5032802;28;20071;-38
2023/01/08 08:45:46;;;;;;;14.27;4.00;;;;;;;;;;5032721;28;20444;-38
2023/01/08 08:48:14;;;;;;;9.55;4.35;;;;;;;;;;5032694;28;20021;-38
2023/01/08 08:50:41;;;;;;;11.13;4.07;;;;;;;;;;5032428;28;20056;-38
2023/01/08 08:53:09;;;;;;;10.88;4.55;;;;;;;;;;5032655;28;20030;-38
2023/01/08 08:55:36;;;;;;;10.13;4.25;;;;;;;;;;5032584;28;20056;-38
2023/01/08 08:58:05;;;;;;;11.30;3.92;;;;;;;;;;5032576;28;20475;-37
2023/01/08 09:00:33;;;;;;;12.50;4.32;;;;;;;;;;5032284;28;20033;-38
2023/01/08 09:03:00;;;;;;;13.90;4.50;;;;;;;;;;5032424;28;20018;-38
2023/01/08 09:05:27;;;;;;;12.40;4.70;;;;;;;;;;5032007;28;20434;-37
2023/01/08 09:07:54;;;;;;;9.25;4.10;;;;;;;;;;5032389;28;20049;-38
2023/01/08 09:10:22;;;;;;;13.30;4.72;;;;;;;;;;5032292;28;20052;-38
2023/01/08 09:12:49;;;;;;;8.93;4.22;;;;;;;;;;5032339;28;20025;-38
2023/01/08 09:15:16;;;;;;;11.02;4.07;;;;;;;;;;5032112;28;20713;-38
2023/01/08 09:17:43;;;;;;;14.82;4.50;;;;;;;;;;5032283;28;20044;-38
2023/01/08 09:20:10;;;;;;;11.55;4.57;;;;;;;;;;5032204;28;20391;-38
2023/01/08 09:22:37;;;;;;;13.73;4.32;;;;;;;;;;5032195;28;20080;-37
2023/01/08 09:25:04;;;;;;;12.48;4.20;;;;;;;;;;5031928;28;20061;-38
2023/01/08 09:27:31;;;;;;;7.45;3.85;;;;;;;;;;5032069;28;20028;-38
2023/01/08 09:29:57;;;;;;;11.45;4.50;;;;;;;;;;5032029;28;20026;-38
2023/01/08 09:32:24;;;;;;;11.40;4.40;;;;;;;;;;5032035;28;20022;-38
2023/01/08 09:34:51;;;;;;;11.05;4.35;;;;;;;;;;5032015;28;20045;-38
2023/01/08 09:37:18;;;;;;;12.10;4.30;;;;;;;;;;5032053;28;20394;-38
2023/01/08 09:39:45;;;;;;;9.93;4.68;;;;;;;;;;5031833;28;20032;-38
2023/01/08 09:42:13;;;;;;;9.68;4.32;;;;;;;;;;5031721;28;20423;-38
2023/01/08 09:44:41;;;;;;;13.98;4.70;;;;;;;;;;5031890;28;20113;-38
2023/01/08 09:47:28;;;;;;;8.65;4.25;;;;;;;;;;5031908;28;20033;-38
2023/01/08 09:49:59;;;;;;;8.73;4.18;;;;;;;;;;5031617;28;20021;-37
2023/01/08 09:52:27;;;;;;;13.05;4.05;;;;;;;;;;5031848;28;20024;-37
2023/01/08 09:54:54;;;;;;;15.13;4.93;;;;;;;;;;5031732;28;20039;-38
2023/01/08 09:57:22;;;;;;;14.13;4.60;;;;;;;;;;5031824;28;20104;-37
2023/01/08 09:59:49;;;;;;;15.40;4.57;;;;;;;;;;5031752;28;20040;-38
2023/01/08 10:02:23;;;;;;;11.13;4.47;;;;;;;;;;5031793;28;20475;-37
2023/01/08 10:04:57;;;;;;;11.35;4.28;;;;;;;;;;5031663;28;20547;-37
2023/01/08 10:07:25;;;;;;;8.45;4.20;;;;;;;;;;5031677;28;20033;-38
2023/01/08 10:09:53;;;;;;;12.00;4.85;;;;;;;;;;5031647;28;20495;-38
2023/01/08 10:12:26;;;;;;;12.10;4.82;;;;;;;;;;5031664;28;20101;-38
2023/01/08 10:14:54;;;;;;;10.55;4.45;;;;;;;;;;5031667;28;20561;-37
2023/01/08 10:17:26;;;;;;;15.02;4.90;;;;;;;;;;5034233;28;20480;-38
2023/01/08 10:19:54;;;;;;;8.93;4.28;;;;;;;;;;5035380;28;20483;-38
2023/01/08 10:22:22;;;;;;;11.25;4.35;;;;;;;;;;5035401;28;20541;-38
2023/01/08 10:24:50;;;;;;;14.18;4.80;;;;;;;;;;5035375;28;20045;-37
2023/01/08 10:27:19;;;;;;;13.32;4.32;;;;;;;;;;5035378;28;20032;-38
2023/01/08 10:29:46;;;;;;;9.18;4.20;;;;;;;;;;5035226;28;20030;-38
2023/01/08 10:32:18;;;;;;;10.43;4.38;;;;;;;;;;5035301;28;20026;-38
2023/01/08 10:34:51;;;;;;;11.20;4.03;;;;;;;;;;5017323;28;20033;-38
2023/01/08 10:37:27;;;;;;;10.43;4.55;;;;;;;;;;5035154;28;20076;-38
2023/01/08 10:40:04;;;;;;;9.07;3.65;;;;;;;;;;5034988;28;20028;-38
2023/01/08 10:42:33;;;;;;;11.25;4.40;;;;;;;;;;5034803;28;20053;-38
2023/01/08 10:45:03;;;;;;;11.55;4.35;;;;;;;;;;5034802;28;20091;-37
2023/01/08 10:47:32;;;;;;;9.73;4.32;;;;;;;;;;5034976;28;20059;-37
2023/01/08 10:50:00;;;;;;;10.63;4.55;;;;;;;;;;5034870;28;20411;-37
2023/01/08 10:52:26;;;;;;;11.38;4.38;;;;;;;;;;5034791;28;20432;-38
2023/01/08 10:54:54;;;;;;;10.57;3.92;;;;;;;;;;5034830;28;20091;-37
2023/01/08 10:57:22;;;;;;;12.40;4.45;;;;;;;;;;5034786;28;20079;-38
2023/01/08 10:59:49;;;;;;;11.75;4.35;;;;;;;;;;5034675;28;20033;-37
2023/01/08 11:02:36;;;;;;;12.02;4.63;;;;;;;;;;5034204;28;20048;-38
2023/01/08 11:05:06;;;;;;;11.32;4.38;;;;;;;;;;5034410;28;20086;-37
2023/01/08 11:07:38;;;;;;;8.77;4.45;;;;;;;;;;5034407;28;20033;-38
2023/01/08 11:10:05;;;;;;;12.88;4.47;;;;;;;;;;5034232;28;20479;-38
2023/01/08 11:12:40;;;;;;;12.23;3.78;;;;;;;;;;5034455;28;20036;-38
2023/01/08 11:15:18;;;;;;;9.68;4.13;;;;;;;;;;5034412;28;20033;-37
2023/01/08 11:17:46;;;;;;;12.57;4.13;;;;;;;;;;5034397;28;20032;-37
2023/01/08 11:20:23;;;;;;;11.60;3.90;;;;;;;;;;5034301;28;20028;-38
2023/01/08 11:22:50;;;;;;;13.80;4.47;;;;;;;;;;5034384;28;20025;-38
2023/01/08 11:25:25;;;;;;;10.70;3.97;;;;;;;;;;5034252;28;20040;-37
2023/01/08 11:27:52;;;;;;;13.02;3.92;;;;;;;;;;5033877;28;20495;-37
2023/01/08 11:30:21;;;;;;;11.05;4.32;;;;;;;;;;5034044;28;20025;-38
2023/01/08 11:33:07;;;;;;;12.23;4.25;;;;;;;;;;5034154;28;20075;-38
2023/01/08 11:35:39;;;;;;;17.08;3.97;;;;;;;;;;5034018;28;20090;-37
2023/01/08 11:38:05;;;;;;;;;;;;;;;;;;5034454;28;20133;-38
2023/01/08 11:40:47;;;;;;;14.45;4.07;;;;;;;;;;5033983;28;19916;-38
2023/01/08 11:43:23;;;;;;;12.35;4.00;;;;;;;;;;5033962;28;20033;-38
2023/01/08 11:45:56;;;;;;;9.45;4.72;;;;;;;;;;5033835;28;20068;-37
2023/01/08 11:48:35;;;;;;;14.88;4.13;;;;;;;;;;5033809;28;20021;-37
2023/01/08 11:51:11;;;;;;;15.40;4.88;;;;;;;;;;5033726;28;20029;-38
2023/01/08 11:53:43;;;;;;;9.82;4.28;;;;;;;;;;5033732;28;20021;-38
2023/01/08 11:56:16;;;;;;;11.85;4.30;;;;;;;;;;5033701;28;20021;-38
2023/01/08 11:58:42;;;;;;;11.13;4.30;;;;;;;;;;5033660;28;20088;-38
2023/01/08 12:01:18;;;;;;;14.15;4.72;;;;;;;;;;5033492;28;20052;-37
2023/01/08 12:04:03;;;;;;;13.93;4.65;;;;;;;;;;5033493;28;20075;-38
2023/01/08 12:07:02;;;;;;;15.38;4.20;;;;;;;;;;5033367;28;20092;-37
2023/01/08 12:09:41;;;;;;;16.33;4.25;;;;;;;;;;4989979;28;20425;-37
2023/01/08 12:12:08;;;;;;;14.80;4.38;;;;;;;;;;5033358;28;20058;-37
2023/01/08 12:14:46;;;;;;;12.35;4.28;;;;;;;;;;5033232;28;20030;-38
2023/01/08 12:17:13;;;;;;;17.65;4.55;;;;;;;;;;5033372;28;20065;-37
2023/01/08 12:19:50;;;;;;;13.25;4.40;;;;;;;;;;5033377;28;20057;-37
2023/01/08 12:22:17;;;;;;;11.23;3.88;;;;;;;;;;5033259;28;20026;-37
2023/01/08 12:24:57;;;;;;;14.68;4.47;;;;;;;;;;5033038;28;20112;-37
2023/01/08 12:27:42;;;;;;;13.70;4.38;;;;;;;;;;5033132;28;20024;-38
2023/01/08 12:30:27;;;;;;;14.65;4.68;;;;;;;;;;5032995;28;20029;-38
2023/01/08 12:33:00;;;;;;;13.95;4.13;;;;;;;;;;5015132;28;20049;-37
2023/01/08 12:35:32;;;;;;;23.42;4.72;;;;;;;;;;5032936;28;20040;-38
2023/01/08 12:38:03;;;;;;;18.90;4.70;;;;;;;;;;5032953;28;20022;-37
2023/01/08 12:40:35;;;;;;;17.92;4.63;;;;;;;;;;5032144;28;20275;-37
2023/01/08 12:43:01;;;;;;;;;;;;;;;;;;5033039;28;20503;-38
2023/01/08 12:45:30;;;;;;;11.20;4.00;;;;;;;;;;5032731;28;19970;-38
2023/01/08 12:48:02;;;;;;;22.08;5.03;;;;;;;;;;5032748;28;20029;-38
2023/01/08 12:50:42;;;;;;;19.88;4.63;;;;;;;;;;5032573;28;20022;-37
2023/01/08 12:53:12;;;;;;;15.57;4.47;;;;;;;;;;5032595;28;20541;-38
2023/01/08 12:55:39;;;;;;;19.85;4.50;;;;;;;;;;5032590;28;20026;-37
2023/01/08 12:58:09;;;;;;;16.20;4.88;;;;;;;;;;5014772;28;20101;-37
2023/01/08 13:00:40;;;;;;;16.55;4.28;;;;;;;;;;5032439;28;20022;-37
2023/01/08 13:06:20;;;;;;;17.65;4.68;;;;;;;;;;5032576;28;20048;-37
2023/01/08 13:08:49;;;;;;;18.98;4.80;;;;;;;;;;5032420;28;20491;-38
2023/01/08 13:11:26;;;;;;;17.15;4.65;;;;;;;;;;5032318;28;20072;-37
2023/01/08 13:14:02;;;;;;;12.68;4.63;;;;;;;;;;5032152;28;20087;-38
2023/01/08 13:16:30;;;;;;;12.77;3.88;;;;;;;;;;5032263;28;20553;-38
2023/01/08 13:19:30;;;;;;;17.08;4.32;;;;;;;;;;5031854;28;20495;-38
2023/01/08 13:21:58;;;;;;;17.75;4.25;;;;;;;;;;5032220;28;20026;-38
2023/01/08 13:24:31;;;;;;;17.98;4.57;;;;;;;;;;5032097;28;20033;-38
2023/01/08 13:27:10;;;;;;;15.75;4.28;;;;;;;;;;5032213;28;20026;-38
2023/01/08 13:29:39;;;;;;;11.80;4.05;;;;;;;;;;5031989;28;20017;-37
2023/01/08 13:32:23;;;;;;;12.93;4.32;;;;;;;;;;5031935;28;20395;-38
2023/01/08 13:35:01;;;;;;;16.42;3.88;;;;;;;;;;5031910;28;20488;-38
2023/01/08 13:37:27;;;;;;;17.88;4.22;;;;;;;;;;5031978;28;20033;-37
2023/01/08 13:39:54;;;;;;;13.70;4.30;;;;;;;;;;5014017;28;20483;-38
2023/01/08 13:42:23;;;;;;;18.02;4.50;;;;;;;;;;5031851;28;20054;-38
2023/01/08 13:44:57;;;;;;;18.70;4.53;;;;;;;;;;5031793;28;20034;-38
2023/01/08 13:47:35;;;;;;;17.85;4.72;;;;;;;;;;5031876;28;20495;-37
2023/01/08 13:50:14;;;;;;;20.75;4.78;;;;;;;;;;5032299;28;20029;-37
2023/01/08 13:52:45;;;;;;;14.52;4.18;;;;;;;;;;5035987;28;20025;-37
2023/01/08 13:55:20;;;;;;;19.30;4.45;;;;;;;;;;5036020;28;20033;-38
2023/01/08 13:57:49;;;;;;;15.50;4.35;;;;;;;;;;5035747;28;20040;-38
2023/01/08 14:00:40;;;;;;;23.48;4.88;;;;;;;;;;5018008;28;20428;-37
2023/01/08 14:03:21;;;;;;;19.10;4.32;;;;;;;;;;5025697;28;20030;-38
2023/01/08 14:05:50;;;;;;;18.73;5.35;;;;;;;;;;5035706;28;20026;-37
2023/01/08 14:08:26;;;;;;;17.38;4.82;;;;;;;;;;5035817;28;20060;-37
2023/01/08 14:10:54;;;;;;;18.75;4.88;;;;;;;;;;5035666;28;20065;-38
2023/01/08 14:13:27;;;;;;;18.90;4.57;;;;;;;;;;5035712;28;20494;-37
2023/01/08 14:15:57;;;;;;;21.90;4.75;;;;;;;;;;5035701;28;20497;-38
2023/01/08 14:18:25;;;;;;;22.33;5.13;;;;;;;;;;5035399;28;20030;-38
2023/01/08 14:20:52;;;;;;;17.05;4.70;;;;;;;;;;5035660;28;20061;-37
2023/01/08 14:23:21;;;;;;;25.02;5.15;;;;;;;;;;5035435;28;20032;-37
2023/01/08 14:25:49;;;;;;;18.48;4.75;;;;;;;;;;5035329;28;20113;-38
2023/01/08 14:28:17;;;;;;;19.05;4.57;;;;;;;;;;5035280;28;20104;-38
2023/01/08 14:30:53;;;;;;;21.33;4.78;;;;;;;;;;5035192;28;20056;-37
2023/01/08 14:33:23;;;;;;;21.20;4.80;;;;;;;;;;5035248;28;20029;-38
2023/01/08 14:35:51;;;;;;;19.75;4.97;;;;;;;;;;5035224;28;20025;-38
2023/01/08 14:38:18;;;;;;;24.40;4.78;;;;;;;;;;5035011;28;20047;-37
2023/01/08 14:40:50;;;;;;;22.77;4.60;;;;;;;;;;5035098;28;20025;-37
2023/01/08 14:43:19;;;;;;;26.52;4.93;;;;;;;;;;5034655;28;20124;-38
2023/01/08 14:45:51;;;;;;;26.08;5.13;;;;;;;;;;5034789;28;20037;-38
2023/01/08 14:48:20;;;;;;;18.73;4.75;;;;;;;;;;5034955;28;20033;-37
2023/01/08 14:51:07;;;;;;;16.90;4.30;;;;;;;;;;5034885;28;20072;-38